createdAt,value
2023-01-05T00:02:06.984Z,100451.56
2023-01-05T00:07:08.438Z,100442.84
2023-01-05T00:12:29.184Z,100442.00
2023-01-05T00:17:49.256Z,100449.25
2023-01-05T00:22:53.555Z,100447.78
2023-01-05T00:27:56.419Z,100430.56
2023-01-05T00:32:58.031Z,100420.81
2023-01-05T00:37:59.404Z,100414.84
2023-01-05T00:43:01.899Z,100404.63
2023-01-05T00:48:03.572Z,100399.16
2023-01-05T00:53:04.937Z,100385.47
2023-01-05T00:58:06.325Z,100400.66
2023-01-05T01:03:09.064Z,100396.72
2023-01-05T01:08:10.475Z,100403.63
2023-01-05T01:13:11.857Z,100410.03
2023-01-05T01:18:13.218Z,100419.16
2023-01-05T01:23:14.692Z,100427.78
2023-01-05T01:28:16.085Z,100428.91
2023-01-05T01:33:17.496Z,100441.75
2023-01-05T01:38:19.016Z,100423.69
2023-01-05T01:43:39.756Z,100431.97
2023-01-05T01:48:46.071Z,100438.47
2023-01-05T01:53:51.431Z,100444.16
2023-01-05T01:58:53.720Z,100440.25
2023-01-05T02:03:55.852Z,100443.22
2023-01-05T02:08:57.350Z,100436.50
2023-01-05T02:14:10.137Z,100444.59
2023-01-05T02:19:50.805Z,100445.81
2023-01-05T02:25:24.612Z,100433.91
2023-01-05T02:31:11.243Z,100432.31
2023-01-05T02:36:28.519Z,100441.31
2023-01-05T02:41:33.052Z,100443.38
2023-01-05T02:46:34.498Z,100438.16
2023-01-05T02:51:39.668Z,100451.56
2023-01-05T02:56:46.941Z,100443.84
2023-01-05T03:01:55.546Z,100461.13
2023-01-05T03:07:03.781Z,100448.75
2023-01-05T03:12:32.496Z,100467.06
2023-01-05T03:17:41.566Z,100482.25
2023-01-05T03:23:03.280Z,100480.72
2023-01-05T03:28:26.972Z,100487.72
2023-01-05T03:34:03.329Z,100490.34
2023-01-05T03:39:07.730Z,100496.03
2023-01-05T03:44:09.386Z,100491.47
2023-01-05T03:49:11.364Z,100485.41
2023-01-05T03:54:12.749Z,100494.34
2023-01-05T03:59:14.394Z,100503.91
2023-01-05T04:04:15.858Z,100495.81
2023-01-05T04:09:17.467Z,100504.56
2023-01-05T04:14:18.869Z,100509.41
2023-01-05T04:19:20.184Z,100513.31
2023-01-05T04:24:21.542Z,100523.09
2023-01-05T04:29:22.920Z,100511.66
2023-01-05T04:34:24.246Z,100513.13
2023-01-05T04:39:25.574Z,100515.81
2023-01-05T04:44:27.031Z,100519.91
2023-01-05T04:49:28.376Z,100520.69
2023-01-05T04:54:29.849Z,100534.34
2023-01-05T04:59:31.227Z,100543.28
2023-01-05T05:04:32.729Z,100558.47
2023-01-05T05:09:34.108Z,100555.03
2023-01-05T05:14:35.769Z,100572.31
2023-01-05T05:19:37.101Z,100566.53
2023-01-05T05:24:38.480Z,100562.47
2023-01-05T05:29:39.837Z,100565.34
2023-01-05T05:34:41.199Z,100559.47
2023-01-05T05:39:42.513Z,100568.59
2023-01-05T05:44:43.941Z,100564.88
2023-01-05T05:49:45.409Z,100574.53
2023-01-05T05:54:46.761Z,100568.97
2023-01-05T05:59:48.081Z,100580.88
2023-01-05T06:04:49.425Z,100593.06
2023-01-05T06:09:50.774Z,100598.09
2023-01-05T06:14:52.374Z,100604.13
2023-01-05T06:19:53.841Z,100602.66
2023-01-05T06:24:55.385Z,100604.31
2023-01-05T06:29:56.824Z,100608.22
2023-01-05T06:34:58.164Z,100613.44
2023-01-05T06:39:59.899Z,100624.59
2023-01-05T06:45:01.229Z,100621.88
2023-01-05T06:50:02.700Z,100630.47
2023-01-05T06:55:04.433Z,100624.53
2023-01-05T07:00:09.340Z,100634.66
2023-01-05T07:05:10.840Z,100627.59
2023-01-05T07:10:12.175Z,100645.81
2023-01-05T07:15:13.542Z,100652.44
2023-01-05T07:20:15.117Z,100647.84
2023-01-05T07:25:16.484Z,100669.13
2023-01-05T07:30:18.473Z,100670.44
2023-01-05T07:35:19.967Z,100674.66
2023-01-05T07:40:21.331Z,100676.06
2023-01-05T07:45:22.711Z,100695.22
2023-01-05T07:50:24.077Z,100699.94
2023-01-05T07:55:25.760Z,100725.69
2023-01-05T08:00:27.160Z,100727.13
2023-01-05T08:05:33.886Z,100733.31
2023-01-05T08:10:37.631Z,100728.28
2023-01-05T08:15:39.732Z,100735.69
2023-01-05T08:20:41.518Z,100738.88
2023-01-05T08:25:42.928Z,100748.78
2023-01-05T08:30:44.505Z,100740.31
2023-01-05T08:35:45.931Z,100750.41
2023-01-05T08:40:47.299Z,100762.16
2023-01-05T08:45:50.260Z,100753.34
2023-01-05T08:50:51.828Z,100765.47
2023-01-05T08:55:53.354Z,100776.75
2023-01-05T09:00:54.950Z,100782.03
2023-01-05T09:05:59.345Z,100790.59
2023-01-05T09:11:18.450Z,100793.81
2023-01-05T09:21:44.535Z,100794.44
2023-01-05T09:26:46.200Z,100790.59
2023-01-05T09:31:47.698Z,100803.31
2023-01-05T09:36:49.162Z,100799.75
2023-01-05T09:42:00.744Z,100800.00
2023-01-05T09:47:11.128Z,100807.44
2023-01-05T09:52:13.806Z,100815.53
2023-01-05T09:57:25.148Z,100813.78
2023-01-05T10:02:44.066Z,100814.53
2023-01-05T10:07:51.228Z,100824.59
2023-01-05T10:13:11.238Z,100818.31
2023-01-05T10:18:21.021Z,100827.66
2023-01-05T10:23:31.806Z,100827.78
2023-01-05T10:28:41.708Z,100828.59
2023-01-05T10:34:05.517Z,100837.41
2023-01-05T10:39:42.540Z,100831.28
2023-01-05T10:45:11.834Z,100843.81
2023-01-05T10:50:35.955Z,100843.19
2023-01-05T10:55:45.090Z,100841.19
2023-01-05T11:00:47.260Z,100834.59
2023-01-05T11:05:48.892Z,100827.97
2023-01-05T11:10:57.324Z,100842.06
2023-01-05T11:16:17.868Z,100852.00
2023-01-05T11:21:23.245Z,100845.09
2023-01-05T11:26:29.691Z,100842.06
2023-01-05T11:31:42.732Z,100849.78
2023-01-05T11:36:52.189Z,100852.28
2023-01-05T11:42:20.223Z,100854.16
2023-01-05T11:47:34.294Z,100851.00
2023-01-05T11:52:50.609Z,100850.06
2023-01-05T11:58:00.151Z,100857.78
2023-01-05T12:03:38.915Z,100858.00
2023-01-05T12:08:58.282Z,100855.22
2023-01-05T12:14:21.353Z,100858.00
2023-01-05T12:19:54.751Z,100852.84
2023-01-05T12:25:20.225Z,100857.44
2023-01-05T12:36:18.615Z,100859.31
2023-01-05T12:41:45.950Z,100858.81
2023-01-05T12:47:04.565Z,100853.34
2023-01-05T12:52:29.305Z,100854.44
2023-01-05T12:57:38.956Z,100876.38
2023-01-05T13:02:46.471Z,100881.19
2023-01-05T13:08:02.049Z,100868.03
2023-01-05T13:13:12.001Z,100867.41
2023-01-05T13:18:17.653Z,100873.56
2023-01-05T13:23:27.346Z,100884.28
2023-01-05T13:28:31.306Z,100879.34
2023-01-05T13:33:55.275Z,100883.91
2023-01-05T13:39:13.649Z,100896.38
2023-01-05T13:44:27.073Z,100897.06
2023-01-05T13:50:03.128Z,100901.72
2023-01-05T13:55:14.668Z,100902.28
2023-01-05T14:00:24.983Z,100902.19
2023-01-05T14:05:30.331Z,100903.84
2023-01-05T14:10:33.941Z,100903.47
2023-01-05T14:15:42.255Z,100909.09
2023-01-05T14:20:53.746Z,100919.19
2023-01-05T14:26:00.377Z,100922.47
2023-01-05T14:31:14.366Z,100919.13
2023-01-05T14:36:57.164Z,100927.63
2023-01-05T14:42:03.908Z,100934.34
2023-01-05T14:47:05.725Z,100928.13
2023-01-05T14:52:16.334Z,100933.69
2023-01-05T14:57:27.054Z,100935.72
2023-01-05T15:02:33.299Z,100949.91
2023-01-05T15:07:48.379Z,100951.69
2023-01-05T15:12:52.327Z,100956.53
2023-01-05T15:18:19.810Z,100955.47
2023-01-05T15:29:28.353Z,100957.28
2023-01-05T15:34:42.652Z,100960.03
2023-01-05T15:39:46.061Z,100958.59
2023-01-05T15:44:49.807Z,100964.00
2023-01-05T15:49:56.488Z,100958.66
2023-01-05T15:55:00.549Z,100963.72
2023-01-05T16:00:02.441Z,100965.91
2023-01-05T16:05:14.343Z,100961.06
2023-01-05T16:10:18.453Z,100970.66
2023-01-05T16:15:22.139Z,100972.81
2023-01-05T16:20:25.896Z,100968.50
2023-01-05T16:25:39.426Z,100971.19
2023-01-05T16:30:42.101Z,100979.78
2023-01-05T16:35:46.158Z,100984.53
2023-01-05T16:40:50.470Z,100977.97
2023-01-05T16:45:58.028Z,100970.25
2023-01-05T16:51:02.246Z,100970.66
2023-01-05T16:56:22.013Z,100969.09
2023-01-05T17:01:35.161Z,100965.03
2023-01-05T17:06:37.020Z,100969.81
2023-01-05T17:11:38.677Z,100985.03
2023-01-05T17:16:40.083Z,100972.41
2023-01-05T17:21:56.326Z,100969.03
2023-01-05T17:26:58.059Z,100979.22
2023-01-05T17:31:59.683Z,100984.16
2023-01-05T17:37:01.200Z,100991.56
2023-01-05T17:42:22.674Z,100986.31
2023-01-05T17:47:25.247Z,100977.72
2023-01-05T17:52:26.575Z,100979.22
2023-01-05T17:57:27.971Z,100981.06
2023-01-05T18:02:29.342Z,100983.94
2023-01-05T18:07:31.953Z,100976.63
2023-01-05T18:12:33.553Z,100975.97
2023-01-05T18:22:41.624Z,100973.66
2023-01-05T18:27:42.977Z,100968.97
2023-01-05T18:32:44.374Z,100961.72
2023-01-05T18:37:45.723Z,100959.94
2023-01-05T18:42:47.092Z,100956.09
2023-01-05T18:47:48.454Z,100964.69
2023-01-05T18:52:49.895Z,100964.03
2023-01-05T18:57:51.254Z,100964.84
2023-01-05T19:02:52.623Z,100963.34
2023-01-05T19:07:54.565Z,100959.75
2023-01-05T19:12:55.929Z,100957.06
2023-01-05T19:17:57.373Z,100953.72
2023-01-05T19:23:01.675Z,100958.94
2023-01-05T19:28:03.106Z,100949.19
2023-01-05T19:33:04.557Z,100950.53
2023-01-05T19:38:05.910Z,100949.72
2023-01-05T19:43:07.280Z,100952.94
2023-01-05T19:48:08.605Z,100954.13
2023-01-05T19:53:10.796Z,100951.94
2023-01-05T19:58:12.207Z,100956.81
2023-01-05T20:03:14.391Z,100943.88
2023-01-05T20:08:15.883Z,100937.31
2023-01-05T20:13:17.286Z,100941.72
2023-01-05T20:18:18.699Z,100941.19
2023-01-05T20:23:20.081Z,100953.63
2023-01-05T20:28:21.441Z,100935.91
2023-01-05T20:33:22.994Z,100949.91
2023-01-05T20:38:24.362Z,100932.38
2023-01-05T20:43:26.825Z,100932.56
2023-01-05T20:48:28.235Z,100936.94
2023-01-05T20:53:29.940Z,100948.22
2023-01-05T20:58:31.993Z,100938.13
2023-01-05T21:03:33.841Z,100946.88
2023-01-05T21:08:36.339Z,100937.06
2023-01-05T21:13:37.680Z,100937.56
2023-01-05T21:18:38.991Z,100944.13
2023-01-05T21:23:40.511Z,100947.16
2023-01-05T21:28:42.775Z,100945.97
2023-01-05T21:33:44.742Z,100945.63
2023-01-05T21:39:01.126Z,100947.66
2023-01-05T21:44:04.879Z,100940.22
2023-01-05T21:49:07.547Z,100941.72
2023-01-05T21:54:29.235Z,100932.47
2023-01-05T21:59:30.669Z,100922.34
2023-01-05T22:04:32.066Z,100919.81
2023-01-05T22:10:28.254Z,100912.22
2023-01-05T22:15:29.576Z,100905.84
2023-01-05T22:20:30.929Z,100910.03
2023-01-05T22:25:32.322Z,100907.50
2023-01-05T22:30:34.745Z,100901.44
2023-01-05T22:35:39.576Z,100901.81
2023-01-05T22:40:41.090Z,100909.81
2023-01-05T22:45:42.545Z,100905.09
2023-01-05T22:50:44.718Z,100903.94
2023-01-05T22:55:46.169Z,100904.94
2023-01-05T23:00:47.645Z,100900.56
2023-01-05T23:05:49.042Z,100901.94
2023-01-05T23:10:50.461Z,100899.06
2023-01-05T23:15:56.051Z,100890.63
2023-01-05T23:21:00.003Z,100886.91
2023-01-05T23:26:01.470Z,100886.75
2023-01-05T23:31:03.072Z,100872.22
2023-01-05T23:36:05.292Z,100867.66
2023-01-05T23:41:08.653Z,100859.59
2023-01-05T23:46:20.001Z,100850.84
2023-01-05T23:51:21.555Z,100845.59
2023-01-05T23:56:28.793Z,100852.50
